地図

経路データ

SID SEASON NUMBER BASIN SUBBASIN NAME ISO_TIME NATURE LAT LON WMO_WIND WMO_PRES WMO_AGENCY TRACK_TYPE DIST2LAND LANDFALL IFLAG USA_AGENCY USA_ATCF_ID USA_LAT USA_LON USA_RECORD USA_STATUS USA_WIND USA_PRES USA_SSHS USA_R34_NE USA_R34_SE USA_R34_SW USA_R34_NW USA_R50_NE USA_R50_SE USA_R50_SW USA_R50_NW USA_R64_NE USA_R64_SE USA_R64_SW USA_R64_NW USA_POCI USA_ROCI USA_RMW USA_EYE TOKYO_LAT TOKYO_LON TOKYO_GRADE TOKYO_WIND TOKYO_PRES TOKYO_R50_DIR TOKYO_R50_LONG TOKYO_R50_SHORT TOKYO_R30_DIR TOKYO_R30_LONG TOKYO_R30_SHORT TOKYO_LAND CMA_LAT CMA_LON CMA_CAT CMA_WIND CMA_PRES HKO_LAT HKO_LON HKO_CAT HKO_WIND HKO_PRES NEWDELHI_LAT NEWDELHI_LON NEWDELHI_GRADE NEWDELHI_WIND NEWDELHI_PRES NEWDELHI_CI NEWDELHI_DP NEWDELHI_POCI REUNION_LAT REUNION_LON REUNION_TYPE REUNION_WIND REUNION_PRES REUNION_TNUM REUNION_CI REUNION_RMW REUNION_R34_NE REUNION_R34_SE REUNION_R34_SW REUNION_R34_NW REUNION_R50_NE REUNION_R50_SE REUNION_R50_SW REUNION_R50_NW REUNION_R64_NE REUNION_R64_SE REUNION_R64_SW REUNION_R64_NW BOM_LAT BOM_LON BOM_TYPE BOM_WIND BOM_PRES BOM_TNUM BOM_CI BOM_RMW BOM_R34_NE BOM_R34_SE BOM_R34_SW BOM_R34_NW BOM_R50_NE BOM_R50_SE BOM_R50_SW BOM_R50_NW BOM_R64_NE BOM_R64_SE BOM_R64_SW BOM_R64_NW BOM_ROCI BOM_POCI BOM_EYE BOM_POS_METHOD BOM_PRES_METHOD NADI_LAT NADI_LON NADI_CAT NADI_WIND NADI_PRES WELLINGTON_LAT WELLINGTON_LON WELLINGTON_WIND WELLINGTON_PRES DS824_LAT DS824_LON DS824_STAGE DS824_WIND DS824_PRES TD9636_LAT TD9636_LON TD9636_STAGE TD9636_WIND TD9636_PRES TD9635_LAT TD9635_LON TD9635_WIND TD9635_PRES TD9635_ROCI NEUMANN_LAT NEUMANN_LON NEUMANN_CLASS NEUMANN_WIND NEUMANN_PRES MLC_LAT MLC_LON MLC_CLASS MLC_WIND MLC_PRES USA_GUST BOM_GUST BOM_GUST_PER REUNION_GUST REUNION_GUST_PER USA_SEAHGT USA_SEARAD_NE USA_SEARAD_SE USA_SEARAD_SW USA_SEARAD_NW STORM_SPEED STORM_DIR
1953308N11092 1953 74 NI BB NOT_NAMED 1953-11-03 18:00:00 TS 11.1000 91.7000 main 601 592 O________O____ jtwc_io IO101953 11.1000 91.7000 -1 11.1000 91.7000 TC 2 338
1953308N11092 1953 74 NI BB NOT_NAMED 1953-11-03 21:00:00 TS 11.1900 91.6675 main 592 587 P________P____ IO101953 11.1900 91.6675 -1 11.1900 91.6675 TC 2 333
1953308N11092 1953 74 NI BB NOT_NAMED 1953-11-04 00:00:00 TS 11.3000 91.6000 main 587 578 O________O____ jtwc_io IO101953 11.3000 91.6000 -1 11.3000 91.6000 TC 25 3 323
1953308N11092 1953 74 NI BB NOT_NAMED 1953-11-04 03:00:00 TS 11.4378 91.4756 main 583 574 P________PO___ IO101953 11.4425 91.4725 -1 11.4425 91.4725 TC 25 11.4000 91.5000 1 4 315
1953308N11092 1953 74 NI BB NOT_NAMED 1953-11-04 06:00:00 TS 11.5928 91.3013 main 577 574 O________OP___ jtwc_io IO101953 11.6000 91.3000 -1 11.6000 91.3000 TC 25 11.5641 91.3063 1 5 310
1953308N11092 1953 74 NI BB NOT_NAMED 1953-11-04 09:00:00 TS 11.7398 91.1082 main 581 570 P________PP___ IO101953 11.7425 91.1075 -1 11.7425 91.1075 TC 25 11.7326 91.1100 1 5 308
1953308N11092 1953 74 NI BB NOT_NAMED 1953-11-04 12:00:00 TS 11.9032 90.9029 main 577 575 O________OP___ jtwc_io IO101953 11.9000 90.9000 -1 11.9000 90.9000 TC 25 11.9097 90.9087 1 5 312
1953308N11092 1953 74 NI BB NOT_NAMED 1953-11-04 15:00:00 TS 12.0950 90.7000 main 575 575 P________PO___ IO101953 12.0925 90.7000 -1 12.0925 90.7000 TC 25 12.1000 90.7000 1 6 315
1953308N11092 1953 74 NI BB NOT_NAMED 1953-11-04 18:00:00 TS 12.3017 90.4946 main 575 574 O________OP___ jtwc_io IO101953 12.3000 90.5000 -1 12.3000 90.5000 TC 25 12.3050 90.4838 1 6 316
1953308N11092 1953 74 NI BB NOT_NAMED 1953-11-04 21:00:00 TS 12.5100 90.2900 main 574 574 P________PP___ IO101953 12.5075 90.3000 -1 12.5075 90.3000 TC 25 12.5150 90.2701 1 6 316
1953308N11092 1953 74 NI BB NOT_NAMED 1953-11-05 00:00:00 TS 12.7058 90.0905 main 575 575 O________OP___ jtwc_io IO101953 12.7000 90.1000 -1 12.7000 90.1000 TC 25 12.7175 90.0714 1 5 312
1953308N11092 1953 74 NI BB NOT_NAMED 1953-11-05 03:00:00 TS 12.8717 89.8850 main 578 578 P________PO___ IO101953 12.8575 89.8775 -1 12.8575 89.8775 TC 25 12.9000 89.9000 1 5 311
1953308N11092 1953 74 NI BB NOT_NAMED 1953-11-05 06:00:00 TS 13.0141 89.7250 main 589 576 O________OP___ jtwc_io IO101953 13.0000 89.7000 -1 13.0000 89.7000 TC 25 13.0424 89.7751 1 4 321
1953308N11092 1953 74 NI BB NOT_NAMED 1953-11-05 09:00:00 TS 13.1599 89.6490 main 586 580 P________PP___ IO101953 13.1575 89.6349 -1 13.1575 89.6349 TC 25 13.1649 89.6772 1 3 336
1953308N11092 1953 74 NI BB NOT_NAMED 1953-11-05 12:00:00 TS 13.2933 89.5969 main 580 580 O________OP___ jtwc_io IO101953 13.3000 89.6000 -1 13.3000 89.6000 TC 25 13.2799 89.5908 1 3 329
1953308N11092 1953 74 NI BB NOT_NAMED 1953-11-05 15:00:00 TS 13.3950 89.5050 main 583 583 P________PO___ IO101953 13.3925 89.5075 -1 13.3925 89.5075 TC 25 13.4000 89.5000 1 3 319
1953308N11092 1953 74 NI BB NOT_NAMED 1953-11-05 18:00:00 TS 13.5156 89.4008 main 587 581 O________OP___ jtwc_io IO101953 13.5000 89.4000 -1 13.5000 89.4000 TC 25 13.5468 89.4024 1 4 328
1953308N11092 1953 74 NI BB NOT_NAMED 1953-11-05 21:00:00 TS 13.6999 89.3083 main 586 581 P________PP___ IO101953 13.7000 89.3150 -1 13.7000 89.3150 TC 25 13.6998 89.2949 1 4 331
1953308N11092 1953 74 NI BB NOT_NAMED 1953-11-06 00:00:00 TS 13.8843 89.1883 main 586 586 O________OP___ jtwc_io IO101953 13.9000 89.2000 -1 13.9000 89.2000 TC 25 13.8530 89.1649 1 4 317
1953308N11092 1953 74 NI BB NOT_NAMED 1953-11-06 03:00:00 TS 14.0050 89.0150 main 601 601 P________PO___ IO101953 14.0075 89.0224 -1 14.0075 89.0224 TC 25 14.0000 89.0000 1 4 301
1953308N11092 1953 74 NI BB NOT_NAMED 1953-11-06 06:00:00 TS 14.1135 88.7967 main 617 617 O________OP___ jtwc_io IO101953 14.1000 88.8000 -1 14.1000 88.8000 TC 25 14.1403 88.7900 1 5 300
1953308N11092 1953 74 NI BB NOT_NAMED 1953-11-06 09:00:00 TS 14.2575 88.5584 main 630 625 P________PP___ IO101953 14.2500 88.5650 -1 14.2500 88.5650 TC 25 14.2725 88.5451 1 6 300
1953308N11092 1953 74 NI BB NOT_NAMED 1953-11-06 12:00:00 TS 14.3978 88.2925 main 625 594 O________OP___ jtwc_io IO101953 14.4000 88.3000 -1 14.4000 88.3000 TC 25 14.3934 88.2775 1 6 295
1953308N11092 1953 74 NI BB NOT_NAMED 1953-11-06 15:00:00 TS 14.5100 88.0050 main 594 564 P________PO___ IO101953 14.5150 88.0075 -1 14.5150 88.0075 TC 25 14.5000 88.0000 1 6 289
1953308N11092 1953 74 NI BB NOT_NAMED 1953-11-06 18:00:00 TS 14.5924 87.7039 main 564 543 O________OP___ jtwc_io IO101953 14.6000 87.7000 -1 14.6000 87.7000 TC 25 14.5773 87.7117 1 6 283
1953308N11092 1953 74 NI BB NOT_NAMED 1953-11-06 21:00:00 TS 14.6476 87.3966 main 543 514 P________PP___ IO101953 14.6500 87.3849 -1 14.6500 87.3849 TC 25 14.6426 87.4198 1 6 281
1953308N11092 1953 74 NI BB NOT_NAMED 1953-11-07 00:00:00 TS 14.7039 87.1143 main 514 492 O________OP___ jtwc_io IO101953 14.7000 87.1000 -1 14.7000 87.1000 TC 25 14.7117 87.1430 1 5 286
1953308N11092 1953 74 NI BB NOT_NAMED 1953-11-07 03:00:00 TS 14.7900 86.8850 main 492 470 P________PO___ IO101953 14.7850 86.8775 -1 14.7850 86.8775 TC 25 14.8000 86.9000 1 4 297
1953308N11092 1953 74 NI BB NOT_NAMED 1953-11-07 06:00:00 TS 14.9053 86.7060 main 470 455 O________OP___ jtwc_io IO101953 14.9000 86.7000 -1 14.9000 86.7000 TC 25 14.9160 86.7180 1 4 308
1953308N11092 1953 74 NI BB NOT_NAMED 1953-11-07 09:00:00 TS 15.0416 86.5516 main 455 424 P________PP___ IO101953 15.0350 86.5425 -1 15.0350 86.5425 TC 25 15.0547 86.5698 1 4 317
1953308N11092 1953 74 NI BB NOT_NAMED 1953-11-07 12:00:00 TS 15.2054 86.4122 main 424 400 O________OP___ jtwc_io IO101953 15.2000 86.4000 -1 15.2000 86.4000 TC 25 15.2161 86.4367 1 4 322
1953308N11092 1953 74 NI BB NOT_NAMED 1953-11-07 15:00:00 TS 15.3900 86.2716 main 400 369 P________PO___ IO101953 15.3850 86.2574 -1 15.3850 86.2574 TC 25 15.4000 86.3000 1 5 323
1953308N11092 1953 74 NI BB NOT_NAMED 1953-11-07 18:00:00 TS 15.6012 86.1054 main 369 338 O________OP___ jtwc_io IO101953 15.6000 86.1000 -1 15.6000 86.1000 TC 25 15.6035 86.1161 1 6 322
1953308N11092 1953 74 NI BB NOT_NAMED 1953-11-07 21:00:00 TS 15.8426 85.9043 main 338 299 P________PP___ IO101953 15.8500 85.8926 -1 15.8500 85.8926 TC 25 15.8276 85.9277 1 6 323
1953308N11092 1953 74 NI BB NOT_NAMED 1953-11-08 00:00:00 TS 16.0876 85.7168 main 299 274 O________OP___ jtwc_io IO101953 16.1000 85.7000 -1 16.1000 85.7000 TC 25 16.0629 85.7505 1 6 326
1953308N11092 1953 74 NI BB NOT_NAMED 1953-11-08 03:00:00 TS 16.3000 85.5850 main 274 250 P________PO___ IO101953 16.3000 85.5774 -1 16.3000 85.5774 TC 25 16.3000 85.6000 1 5 334
1953308N11092 1953 74 NI BB NOT_NAMED 1953-11-08 06:00:00 TS 16.5097 85.5000 main 250 225 O________OP___ jtwc_io IO101953 16.5000 85.5000 -1 16.5000 85.5000 TC 25 16.5290 85.5001 1 5 343
1953308N11092 1953 74 NI BB NOT_NAMED 1953-11-08 09:00:00 TS 16.7524 85.4424 main 217 200 P________PP___ IO101953 16.7500 85.4500 -1 16.7500 85.4500 TC 25 16.7574 85.4272 1 5 348
1953308N11092 1953 74 NI BB NOT_NAMED 1953-11-08 12:00:00 TS 16.9940 85.3886 main 200 176 O________OP___ jtwc_io IO101953 17.0000 85.4000 -1 17.0000 85.4000 TC 25 16.9821 85.3657 1 5 344
1953308N11092 1953 74 NI BB NOT_NAMED 1953-11-08 15:00:00 TS 17.2050 85.3050 main 176 153 P________PO___ IO101953 17.2075 85.3075 -1 17.2075 85.3075 TC 25 17.2000 85.3000 1 4 337
1953308N11092 1953 74 NI BB NOT_NAMED 1953-11-08 18:00:00 TS 17.4035 85.2071 main 153 131 O________OP___ jtwc_io IO101953 17.4000 85.2000 -1 17.4000 85.2000 TC 25 17.4088 85.2177 1 4 335
1953308N11092 1953 74 NI BB NOT_NAMED 1953-11-08 21:00:00 TS 17.6029 85.1073 main 131 107 P________PP___ IO101953 17.5975 85.0975 -1 17.5975 85.0975 TC 25 17.6101 85.1203 1 4 335
1953308N11092 1953 74 NI BB NOT_NAMED 1953-11-09 00:00:00 TS 17.8032 85.0064 main 107 84 O________OP___ jtwc_io IO101953 17.8000 85.0000 -1 17.8000 85.0000 TC 25 17.8063 85.0128 1 4 333
1953308N11092 1953 74 NI BB NOT_NAMED 1953-11-09 03:00:00 NR 18.0000 84.9000 main 84 __________O___ IO101953 -1 TC 18.0000 84.9000 1 4 332

IBTrACS Databaseについて

本データベースは、米国NOAAが公開する1842年以降の世界の熱帯低気圧のベストトラックデータアーカイブInternational Best Track Archive for Climate Stewardship (IBTrACS)を、ウェブで閲覧しやすい形式に変換したものです。

最終更新日:2021-10-25